Time;durP1;ratioP1;P1;durP2;ratioP2;P2;SDS_P1;SDS_P2;PMS_P1;PMS_P2;Temp;Humidity;BMP_temperature;BMP_pressure;BME280_temperature;BME280_humidity;BME280_pressure;Samples;Min_cycle;Max_cycle;Signal;HPM_P1;HPM_P2
2021/10/11 00:01:55;;;;;;;24.83;8.70;;;2.10;1.00;;;;;;4393623;28;654401;-65
2021/10/11 00:04:45;;;;;;;25.67;9.03;;;2.20;1.00;;;;;;4374696;28;655377;-65
2021/10/11 00:07:36;;;;;;;19.73;8.83;;;2.10;1.00;;;;;;4393206;28;654673;-65
2021/10/11 00:10:27;;;;;;;21.25;8.35;;;2.10;1.00;;;;;;4392358;28;655611;-65
2021/10/11 00:13:16;;;;;;;20.97;9.10;;;2.00;1.00;;;;;;4392889;28;654498;-65
2021/10/11 00:16:07;;;;;;;19.00;8.27;;;2.00;1.00;;;;;;4395038;28;655107;-65
2021/10/11 00:18:57;;;;;;;22.50;8.60;;;2.00;1.00;;;;;;4394561;28;654849;-65
2021/10/11 00:21:46;;;;;;;15.23;8.30;;;2.00;1.00;;;;;;4395240;28;655097;-65
2021/10/11 00:24:35;;;;;;;21.40;9.33;;;1.90;1.00;;;;;;4398447;28;655468;-65
2021/10/11 00:27:24;;;;;;;25.50;8.90;;;1.90;1.00;;;;;;4399159;28;655669;-64
2021/10/11 00:30:14;;;;;;;20.13;7.90;;;1.90;1.00;;;;;;4399134;28;655458;-66
2021/10/11 00:33:06;;;;;;;19.17;8.73;;;1.90;1.00;;;;;;4398398;28;654558;-66
2021/10/11 00:35:55;;;;;;;25.20;8.80;;;1.80;1.00;;;;;;4392829;28;654942;-65
2021/10/11 00:38:44;;;;;;;20.33;9.03;;;1.80;1.00;;;;;;4399207;28;654050;-66
2021/10/11 00:41:33;;;;;;;25.00;8.63;;;1.70;1.00;;;;;;4401079;28;655064;-65
2021/10/11 00:44:22;;;;;;;24.40;8.83;;;1.80;1.00;;;;;;4396193;28;654918;-66
2021/10/11 00:47:14;;;;;;;21.17;7.40;;;1.70;1.00;;;;;;4420804;28;654353;-65
2021/10/11 00:50:05;;;;;;;20.20;8.30;;;1.70;1.00;;;;;;4370584;28;654416;-65
2021/10/11 00:52:54;;;;;;;24.80;7.77;;;1.60;1.00;;;;;;4397508;28;655025;-65
2021/10/11 00:55:43;;;;;;;24.13;8.43;;;1.60;1.00;;;;;;4399129;28;654507;-65
2021/10/11 00:58:32;;;;;;;17.30;8.10;;;1.50;1.00;;;;;;4408593;28;655460;-66
2021/10/11 01:01:21;;;;;;;22.60;8.50;;;1.50;1.00;;;;;;4413375;28;654594;-65
2021/10/11 01:04:10;;;;;;;21.30;8.97;;;1.50;1.00;;;;;;4393666;28;654666;-65
2021/10/11 01:07:00;;;;;;;24.30;9.80;;;1.50;1.00;;;;;;4398048;28;655673;-65
2021/10/11 01:09:49;;;;;;;24.67;9.50;;;1.40;1.00;;;;;;4398984;28;655686;-64
2021/10/11 01:12:37;;;;;;;18.63;8.63;;;1.40;1.00;;;;;;4398171;28;654335;-65
2021/10/11 01:15:27;;;;;;;22.20;8.70;;;1.30;1.00;;;;;;4414956;28;654382;-66
2021/10/11 01:18:17;;;;;;;18.35;8.18;;;1.30;1.00;;;;;;4386789;28;654575;-66
2021/10/11 01:21:11;;;;;;;19.87;9.03;;;1.30;1.00;;;;;;4415083;28;654286;-66
2021/10/11 01:24:00;;;;;;;23.33;9.10;;;1.30;1.00;;;;;;4398646;28;655566;-66
2021/10/11 01:26:49;;;;;;;22.23;8.07;;;1.30;1.00;;;;;;4399209;28;654894;-64
2021/10/11 01:29:38;;;;;;;17.27;7.43;;;1.30;1.00;;;;;;4403514;28;654214;-64
2021/10/11 01:32:33;;;;;;;18.30;7.87;;;1.30;1.00;;;;;;4396307;28;654759;-66
2021/10/11 01:35:21;;;;;;;22.92;8.45;;;1.20;1.00;;;;;;4380481;28;655067;-66
2021/10/11 01:38:12;;;;;;;18.63;7.97;;;1.20;1.00;;;;;;4415929;28;655137;-66
2021/10/11 01:41:00;;;;;;;19.83;7.50;;;1.20;1.00;;;;;;4393018;28;654481;-65
2021/10/11 01:43:47;;;;;;;20.63;7.80;;;1.20;1.00;;;;;;4394598;28;656134;-65
2021/10/11 01:46:36;;;;;;;21.80;8.57;;;1.20;1.00;;;;;;4416746;28;654494;-65
2021/10/11 01:49:23;;;;;;;19.53;8.33;;;1.10;1.00;;;;;;4391622;28;655596;-65
2021/10/11 01:52:11;;;;;;;17.87;7.90;;;1.10;1.00;;;;;;4397997;28;654394;-65
2021/10/11 01:55:00;;;;;;;22.43;8.67;;;1.10;1.00;;;;;;4415295;28;655853;-65
2021/10/11 01:57:47;;;;;;;21.80;9.13;;;1.10;1.00;;;;;;4400285;28;655062;-65
2021/10/11 02:00:35;;;;;;;27.97;9.10;;;1.10;1.00;;;;;;4414424;28;654434;-66
2021/10/11 02:03:22;;;;;;;17.40;8.27;;;1.00;1.00;;;;;;4399749;28;655555;-66
2021/10/11 02:06:10;;;;;;;20.87;7.77;;;1.00;1.00;;;;;;4413411;28;654442;-66
2021/10/11 02:08:58;;;;;;;15.73;7.33;;;0.90;1.00;;;;;;4418069;28;655897;-65
2021/10/11 02:11:51;;;;;;;19.07;7.27;;;0.90;1.00;;;;;;4397838;28;655628;-66
2021/10/11 02:14:43;;;;;;;19.37;7.90;;;0.80;11.70;;;;;;4399763;28;655102;-64
2021/10/11 02:17:34;;;;;;;20.60;8.70;;;0.90;19.80;;;;;;4381947;28;655741;-66
2021/10/11 02:20:23;;;;;;;23.33;9.20;;;0.80;18.00;;;;;;4396195;28;655234;-65
2021/10/11 02:23:15;;;;;;;24.70;9.77;;;0.80;20.60;;;;;;4400075;28;655415;-65
2021/10/11 02:26:03;;;;;;;25.50;9.60;;;0.80;20.40;;;;;;4401188;28;656340;-66
2021/10/11 02:28:52;;;;;;;20.57;9.30;;;0.80;18.90;;;;;;4402390;28;656275;-65
2021/10/11 02:31:40;;;;;;;20.10;8.80;;;0.80;17.70;;;;;;4411727;28;655791;-66
2021/10/11 02:34:28;;;;;;;21.23;9.07;;;0.80;20.20;;;;;;4414900;28;657128;-65
2021/10/11 02:37:15;;;;;;;23.37;8.80;;;0.70;12.30;;;;;;4392488;28;655534;-66
2021/10/11 02:40:03;;;;;;;21.70;8.53;;;0.70;22.50;;;;;;4415076;28;657013;-65
2021/10/11 02:42:51;;;;;;;19.67;8.53;;;0.60;23.80;;;;;;4394786;28;655743;-66
2021/10/11 02:45:40;;;;;;;18.02;7.88;;;0.60;29.30;;;;;;4414761;28;656544;-65
2021/10/11 02:48:27;;;;;;;21.33;8.77;;;0.60;31.80;;;;;;4389466;28;656543;-65
2021/10/11 02:51:15;;;;;;;22.70;9.77;;;0.60;37.60;;;;;;4414076;28;655406;-65
2021/10/11 02:54:02;;;;;;;23.97;9.77;;;0.70;39.40;;;;;;4394366;28;656194;-65
2021/10/11 02:56:50;;;;;;;20.97;8.90;;;0.70;38.20;;;;;;4417243;28;657622;-65
2021/10/11 02:59:37;;;;;;;20.43;8.33;;;0.70;35.80;;;;;;4395049;28;656666;-65
2021/10/11 03:02:26;;;;;;;19.63;8.63;;;0.70;29.00;;;;;;4416844;28;655821;-65
2021/10/11 03:05:14;;;;;;;26.27;9.00;;;0.60;27.90;;;;;;4394180;28;656152;-65
2021/10/11 03:08:01;;;;;;;21.40;9.07;;;0.50;28.60;;;;;;4399012;28;655431;-65
2021/10/11 03:10:49;;;;;;;19.10;8.47;;;0.50;33.30;;;;;;4418667;28;655969;-65
2021/10/11 03:13:36;;;;;;;25.67;9.23;;;0.50;38.10;;;;;;4397953;28;655572;-65
2021/10/11 03:16:24;;;;;;;18.90;8.93;;;0.50;37.60;;;;;;4415983;28;655620;-65
2021/10/11 03:19:12;;;;;;;24.13;10.03;;;0.50;37.70;;;;;;4396716;28;655508;-64
2021/10/11 03:22:00;;;;;;;20.60;9.50;;;0.50;36.80;;;;;;4410153;28;657176;-66
2021/10/11 03:24:48;;;;;;;24.47;10.13;;;0.50;42.60;;;;;;4418049;28;656447;-65
2021/10/11 03:27:36;;;;;;;23.33;9.27;;;0.50;43.00;;;;;;4396468;28;656622;-66
2021/10/11 03:30:23;;;;;;;23.17;8.63;;;0.50;30.30;;;;;;4418322;28;656121;-64
2021/10/11 03:33:11;;;;;;;21.03;10.07;;;0.30;25.10;;;;;;4396836;28;655664;-65
2021/10/11 03:36:00;;;;;;;25.13;10.10;;;0.30;39.60;;;;;;4417407;28;657034;-64
2021/10/11 03:38:47;;;;;;;22.07;9.13;;;0.30;52.70;;;;;;4391286;28;657776;-64
2021/10/11 03:41:35;;;;;;;24.85;9.43;;;0.30;63.00;;;;;;4416071;28;655680;-64
2021/10/11 03:44:22;;;;;;;24.93;10.40;;;0.30;65.70;;;;;;4391782;28;656386;-64
2021/10/11 03:47:10;;;;;;;23.87;10.20;;;0.30;67.00;;;;;;4415089;28;656604;-64
2021/10/11 03:49:57;;;;;;;23.23;10.23;;;0.30;73.00;;;;;;4394156;28;657276;-64
2021/10/11 03:52:46;;;;;;;23.63;10.43;;;0.30;70.40;;;;;;4417279;28;656365;-65
2021/10/11 03:55:34;;;;;;;25.03;9.97;;;0.30;65.60;;;;;;4390186;28;656862;-64
2021/10/11 03:58:21;;;;;;;23.90;10.40;;;0.30;65.70;;;;;;4391397;28;655750;-67
2021/10/11 04:01:10;;;;;;;24.47;10.73;;;0.30;70.30;;;;;;4418331;28;657086;-65
2021/10/11 04:03:59;;;;;;;22.73;9.90;;;0.30;68.00;;;;;;4390931;28;657286;-66
2021/10/11 04:06:49;;;;;;;23.67;10.68;;;0.30;66.30;;;;;;4398245;28;657630;-65
2021/10/11 04:09:44;;;;;;;28.20;10.70;;;0.30;73.90;;;;;;4397357;28;656736;-65
2021/10/11 04:12:38;;;;;;;26.27;10.43;;;0.30;65.30;;;;;;4374668;28;657517;-66
2021/10/11 04:15:26;;;;;;;20.80;9.90;;;0.30;63.10;;;;;;4380515;28;656796;-66
2021/10/11 04:18:14;;;;;;;24.33;10.83;;;0.30;65.10;;;;;;4420275;28;655594;-66
2021/10/11 04:21:01;;;;;;;26.63;11.43;;;0.20;66.60;;;;;;4394649;28;656348;-66
2021/10/11 04:23:49;;;;;;;28.57;13.00;;;0.30;76.70;;;;;;4414920;28;658545;-65
2021/10/11 04:26:38;;;;;;;35.47;13.33;;;0.30;86.20;;;;;;4397434;28;656613;-66
2021/10/11 04:29:25;;;;;;;31.73;11.83;;;0.30;89.60;;;;;;4395759;28;655955;-66
2021/10/11 04:32:13;;;;;;;29.67;13.00;;;0.20;71.60;;;;;;4414650;28;657884;-66
2021/10/11 04:35:01;;;;;;;31.17;14.13;;;0.20;72.30;;;;;;4399171;28;656488;-66
2021/10/11 04:37:48;;;;;;;36.33;15.57;;;0.20;76.00;;;;;;4419573;28;658096;-66
2021/10/11 04:40:36;;;;;;;42.20;16.73;;;0.10;80.40;;;;;;4396674;28;656361;-65
2021/10/11 04:43:25;;;;;;;37.30;15.57;;;0.20;91.20;;;;;;4412479;28;658032;-65
2021/10/11 04:46:12;;;;;;;39.10;16.48;;;0.20;88.50;;;;;;4392449;28;657969;-66
2021/10/11 04:49:00;;;;;;;43.07;17.17;;;0.20;83.80;;;;;;4407746;28;656525;-67
2021/10/11 04:51:48;;;;;;;47.43;18.20;;;0.10;90.50;;;;;;4416687;28;659054;-64
2021/10/11 04:54:35;;;;;;;41.50;18.90;;;0.10;93.00;;;;;;4395939;28;656457;-66
2021/10/11 04:57:23;;;;;;;48.40;20.00;;;0.10;94.50;;;;;;4415053;28;657014;-65
2021/10/11 05:00:43;;;;;;;55.70;22.23;;;0.20;94.50;;;;;;4388264;28;656468;-65
2021/10/11 05:03:30;;;;;;;53.37;20.27;;;0.20;98.30;;;;;;4382196;28;657003;-66
2021/10/11 05:06:24;;;;;;;46.27;17.83;;;0.20;99.90;;;;;;4413660;28;658162;-65
2021/10/11 05:09:11;;;;;;;50.67;20.87;;;0.30;99.90;;;;;;4394105;28;656586;-66
2021/10/11 05:11:59;;;;;;;54.40;21.30;;;0.30;99.90;;;;;;4418213;28;656619;-65
2021/10/11 05:14:46;;;;;;;49.97;20.03;;;0.40;99.90;;;;;;4396409;28;656694;-65
2021/10/11 05:17:35;;;;;;;61.07;27.30;;;0.40;99.90;;;;;;4418665;28;656838;-65
2021/10/11 05:20:25;;;;;;;64.90;27.33;;;0.50;99.90;;;;;;4400095;28;656654;-65
2021/10/11 05:23:12;;;;;;;72.57;30.03;;;0.60;99.90;;;;;;4399000;28;657484;-66
2021/10/11 05:26:00;;;;;;;96.77;36.47;;;0.70;99.90;;;;;;4418538;28;657040;-65
2021/10/11 05:28:48;;;;;;;108.43;41.93;;;0.80;99.90;;;;;;4390900;28;656626;-65
2021/10/11 05:31:35;;;;;;;127.67;48.10;;;0.90;99.90;;;;;;4402729;28;657508;-66
2021/10/11 05:34:25;;;;;;;84.27;31.77;;;1.00;99.90;;;;;;4416870;28;658614;-65
2021/10/11 05:37:12;;;;;;;56.80;24.17;;;1.20;99.90;;;;;;4393249;28;657966;-67
2021/10/11 05:40:00;;;;;;;68.60;28.13;;;1.20;99.90;;;;;;4410144;28;656988;-66
2021/10/11 05:42:48;;;;;;;84.47;28.37;;;1.20;99.90;;;;;;4413158;28;657469;-64
2021/10/11 05:45:36;;;;;;;343.73;50.03;;;1.30;99.90;;;;;;4394128;28;657499;-67
2021/10/11 05:48:23;;;;;;;372.17;57.73;;;1.40;99.90;;;;;;4419244;28;658485;-65
2021/10/11 05:51:12;;;;;;;393.33;58.93;;;1.70;99.90;;;;;;4393684;28;657943;-66
2021/10/11 05:54:00;;;;;;;320.87;59.37;;;1.80;99.90;;;;;;4414104;28;657400;-65
2021/10/11 05:56:47;;;;;;;324.60;59.73;;;2.00;99.90;;;;;;4390655;28;658595;-66
2021/10/11 05:59:35;;;;;;;236.03;57.23;;;2.10;99.90;;;;;;4413501;28;658786;-65
2021/10/11 06:02:22;;;;;;;291.60;64.67;;;2.20;99.90;;;;;;4391753;28;658550;-66
2021/10/11 06:05:10;;;;;;;266.03;69.37;;;2.30;99.90;;;;;;4412776;28;657608;-67
2021/10/11 06:07:59;;;;;;;221.67;71.10;;;2.20;99.90;;;;;;4412834;28;658797;-67
2021/10/11 06:10:47;;;;;;;210.27;66.37;;;2.20;99.90;;;;;;4393872;28;657655;-66
2021/10/11 06:13:34;;;;;;;151.87;60.70;;;2.30;99.90;;;;;;4413812;28;657969;-65
2021/10/11 06:16:22;;;;;;;154.43;61.33;;;2.40;99.90;;;;;;4393048;28;657809;-65
2021/10/11 06:19:09;;;;;;;149.60;59.80;;;2.60;99.90;;;;;;4409503;28;657094;-65
2021/10/11 06:21:57;;;;;;;154.13;63.70;;;2.70;99.90;;;;;;4387892;28;658259;-66
2021/10/11 06:24:46;;;;;;;139.47;57.43;;;2.90;99.90;;;;;;4410848;28;657787;-65
2021/10/11 06:27:34;;;;;;;133.73;58.27;;;2.90;99.90;;;;;;4386367;28;657805;-65
2021/10/11 06:30:21;;;;;;;146.03;59.27;;;3.20;99.90;;;;;;4387240;28;657626;-66
2021/10/11 06:33:09;;;;;;;128.30;55.53;;;3.30;99.90;;;;;;4412221;28;658294;-65
2021/10/11 06:35:57;;;;;;;139.97;57.80;;;3.50;99.90;;;;;;4390065;28;657592;-66
2021/10/11 06:38:44;;;;;;;132.63;57.80;;;3.60;99.90;;;;;;4413250;28;658205;-65
2021/10/11 06:41:33;;;;;;;137.70;57.50;;;3.70;99.90;;;;;;4391547;28;658037;-65
2021/10/11 06:44:21;;;;;;;129.67;52.33;;;4.00;99.90;;;;;;4400538;28;657808;-66
2021/10/11 06:47:08;;;;;;;142.63;53.67;;;4.10;99.90;;;;;;4406533;28;658858;-65
2021/10/11 06:49:56;;;;;;;122.47;51.30;;;4.10;99.90;;;;;;4388019;28;657794;-65
2021/10/11 06:52:43;;;;;;;117.03;48.23;;;4.20;99.90;;;;;;4415751;28;658637;-65
2021/10/11 06:55:31;;;;;;;125.87;50.27;;;4.40;99.90;;;;;;4394562;28;657712;-65
2021/10/11 06:58:20;;;;;;;118.33;46.53;;;4.50;99.90;;;;;;4411406;28;657681;-66
2021/10/11 07:01:08;;;;;;;115.53;47.53;;;4.50;99.90;;;;;;4387199;28;658867;-65
2021/10/11 07:03:55;;;;;;;108.75;46.00;;;4.60;99.90;;;;;;4389444;28;657650;-66
2021/10/11 07:06:43;;;;;;;129.50;45.93;;;4.80;99.90;;;;;;4413801;28;658009;-66
2021/10/11 07:09:31;;;;;;;118.67;48.47;;;4.90;99.90;;;;;;4397957;28;658192;-66
2021/10/11 07:12:18;;;;;;;116.27;44.97;;;5.00;99.90;;;;;;4417564;28;658106;-65
2021/10/11 07:15:10;;;;;;;127.80;47.33;;;5.10;99.90;;;;;;4400641;28;657902;-66
2021/10/11 07:17:58;;;;;;;111.33;44.53;;;5.20;99.90;;;;;;4395926;28;658749;-64
2021/10/11 07:20:46;;;;;;;112.60;43.43;;;5.50;99.90;;;;;;4404829;28;657551;-65
2021/10/11 07:23:34;;;;;;;116.65;44.92;;;5.70;99.90;;;;;;4416315;28;658654;-65
2021/10/11 07:26:22;;;;;;;105.83;42.97;;;5.90;24.20;;;;;;4405046;28;658370;-64
2021/10/11 07:29:10;;;;;;;106.93;42.70;;;6.10;1.00;;;;;;4410439;28;658027;-66
2021/10/11 07:32:00;;;;;;;104.10;39.27;;;6.30;1.00;;;;;;4418256;28;657202;-64
2021/10/11 07:34:47;;;;;;;102.57;40.87;;;6.30;1.00;;;;;;4399751;28;658975;-64
2021/10/11 07:37:35;;;;;;;100.50;39.07;;;6.50;1.00;;;;;;4418147;28;656768;-64
2021/10/11 07:40:22;;;;;;;89.40;31.60;;;6.70;1.00;;;;;;4391749;28;657944;-63
2021/10/11 07:43:10;;;;;;;98.83;39.27;;;6.90;99.90;;;;;;4415275;28;655544;-66
2021/10/11 07:46:02;;;;;;;91.63;37.10;;;7.00;99.90;;;;;;4397000;28;657791;-65
2021/10/11 07:48:52;;;;;;;97.77;40.20;;;7.20;99.90;;;;;;4388513;28;657114;-66
2021/10/11 07:51:40;;;;;;;99.03;39.05;;;7.40;99.90;;;;;;4416978;28;656788;-65
2021/10/11 07:54:27;;;;;;;96.03;38.73;;;7.50;99.90;;;;;;4392017;28;658049;-65
2021/10/11 07:57:16;;;;;;;96.60;37.00;;;7.60;1.00;;;;;;4419977;28;656645;-66
2021/10/11 08:00:04;;;;;;;94.77;39.77;;;7.70;1.00;;;;;;4421941;28;656632;-64
2021/10/11 08:02:51;;;;;;;97.17;37.13;;;7.70;1.00;;;;;;4396839;28;656521;-65
2021/10/11 08:05:40;;;;;;;91.90;37.07;;;7.90;1.00;;;;;;4415037;28;655676;-65
2021/10/11 08:08:28;;;;;;;99.07;38.40;;;8.20;1.00;;;;;;4393354;28;657414;-65
2021/10/11 08:11:16;;;;;;;93.23;38.23;;;8.30;1.00;;;;;;4398860;28;655749;-66
2021/10/11 08:14:04;;;;;;;104.73;42.97;;;8.40;1.00;;;;;;4416609;28;656048;-65
2021/10/11 08:16:52;;;;;;;85.30;35.88;;;8.60;1.00;;;;;;4395466;28;658000;-65
2021/10/11 08:19:40;;;;;;;88.27;36.03;;;8.80;1.00;;;;;;4414445;28;655406;-66
2021/10/11 08:22:29;;;;;;;74.70;30.17;;;9.20;1.00;;;;;;4395280;28;655615;-66
2021/10/11 08:25:16;;;;;;;69.80;28.97;;;9.40;1.00;;;;;;4398703;28;655648;-66
2021/10/11 08:28:05;;;;;;;67.03;27.43;;;9.50;99.90;;;;;;4421479;28;655258;-67
2021/10/11 08:30:54;;;;;;;67.83;29.80;;;9.30;99.90;;;;;;4394802;28;656773;-66
2021/10/11 08:33:41;;;;;;;75.70;29.47;;;9.50;1.00;;;;;;4401314;28;656445;-65
2021/10/11 08:36:29;;;;;;;69.77;27.90;;;9.80;1.00;;;;;;4419302;28;655484;-64
2021/10/11 08:39:18;;;;;;;72.00;28.97;;;10.40;76.50;;;;;;4403514;28;656470;-65
2021/10/11 08:42:06;;;;;;;67.63;27.90;;;10.50;1.00;;;;;;4393824;28;658508;-66
2021/10/11 08:44:54;;;;;;;65.20;26.97;;;10.50;40.60;;;;;;4412499;28;660001;-65
2021/10/11 08:47:41;;;;;;;71.17;28.27;;;10.10;99.90;;;;;;4388812;28;658784;-65
2021/10/11 08:50:29;;;;;;;69.83;27.07;;;9.60;99.90;;;;;;4413581;28;659422;-65
2021/10/11 08:53:16;;;;;;;66.53;28.93;;;9.50;99.90;;;;;;4394571;28;657426;-66
2021/10/11 08:56:06;;;;;;;67.40;28.50;;;9.40;99.90;;;;;;4406872;28;658656;-65
2021/10/11 08:58:53;;;;;;;64.13;27.20;;;9.60;99.90;;;;;;4388675;28;658439;-68
2021/10/11 09:01:41;;;;;;;58.67;24.90;;;9.70;1.00;;;;;;4393816;28;657721;-68
2021/10/11 09:04:29;;;;;;;53.83;23.52;;;9.80;99.90;;;;;;4411420;28;657752;-68
2021/10/11 09:07:16;;;;;;;71.53;22.63;;;9.70;99.90;;;;;;4388327;28;657228;-68
2021/10/11 09:10:05;;;;;;;60.47;22.53;;;9.70;99.90;;;;;;4411411;28;658201;-68
2021/10/11 09:12:54;;;;;;;60.10;24.40;;;9.60;1.00;;;;;;4388667;28;659076;-68
2021/10/11 09:15:42;;;;;;;61.03;25.03;;;9.80;1.00;;;;;;4392557;28;656615;-68
2021/10/11 09:18:29;;;;;;;68.00;27.43;;;9.80;99.90;;;;;;4411175;28;656447;-68
2021/10/11 09:21:17;;;;;;;73.10;28.90;;;9.90;1.00;;;;;;4390986;28;658843;-68
2021/10/11 09:24:06;;;;;;;72.93;29.53;;;9.90;88.80;;;;;;4422945;28;656647;-68
2021/10/11 09:26:55;;;;;;;64.83;28.97;;;9.80;95.90;;;;;;4394412;28;659570;-68
2021/10/11 09:29:46;;;;;;;65.80;26.13;;;9.80;99.90;;;;;;4404808;28;658934;-68
2021/10/11 09:32:33;;;;;;;66.90;28.47;;;9.80;99.90;;;;;;4404415;28;657810;-68
2021/10/11 09:35:22;;;;;;;68.00;27.37;;;9.80;1.00;;;;;;4392087;28;658297;-68
2021/10/11 09:38:23;;;;;;;67.70;29.20;;;9.90;17.80;;;;;;4434360;28;656885;-68
2021/10/11 09:41:11;;;;;;;72.97;31.87;;;10.00;99.90;;;;;;4391148;28;657425;-68
2021/10/11 09:43:58;;;;;;;74.10;33.10;;;9.80;11.90;;;;;;4427786;28;659575;-68
2021/10/11 09:46:48;;;;;;;85.80;37.73;;;9.80;88.50;;;;;;4404926;28;657535;-68
2021/10/11 09:49:35;;;;;;;87.10;38.17;;;9.80;99.90;;;;;;4409572;28;657538;-68
2021/10/11 09:52:23;;;;;;;92.33;40.63;;;9.70;1.00;;;;;;4435574;28;658177;-68
2021/10/11 09:55:11;;;;;;;94.03;40.73;;;9.50;1.00;;;;;;4409793;28;656535;-68
2021/10/11 09:57:59;;;;;;;109.57;46.73;;;9.40;1.00;;;;;;4431099;28;656894;-68
2021/10/11 10:00:47;;;;;;;105.70;47.23;;;9.50;99.90;;;;;;4407108;28;657500;-68
2021/10/11 10:03:36;;;;;;;108.93;47.33;;;9.60;99.90;;;;;;4425662;28;658991;-68
2021/10/11 10:06:26;;;;;;;106.87;45.23;;;9.70;99.90;;;;;;4405975;28;658716;-68
2021/10/11 10:09:13;;;;;;;91.23;42.43;;;9.70;99.90;;;;;;4406009;28;659429;-68
2021/10/11 10:12:04;;;;;;;111.90;49.70;;;9.90;1.00;;;;;;4408959;28;657702;-68
2021/10/11 10:15:00;;;;;;;118.30;49.50;;;9.70;99.90;;;;;;4409702;28;658332;-68
2021/10/11 10:17:47;;;;;;;114.43;46.00;;;10.00;1.00;;;;;;4378422;28;659509;-68
2021/10/11 10:20:37;;;;;;;97.90;42.43;;;9.90;89.60;;;;;;4424688;28;658805;-68
2021/10/11 10:23:27;;;;;;;104.90;43.77;;;9.90;14.70;;;;;;4432994;28;657532;-67
2021/10/11 10:26:14;;;;;;;99.03;44.60;;;9.80;1.00;;;;;;4427811;28;660826;-68
2021/10/11 10:29:12;;;;;;;96.07;45.27;;;9.80;1.00;;;;;;4412040;28;657508;-68
2021/10/11 10:32:06;;;;;;;96.23;44.30;;;10.10;1.00;;;;;;4404570;28;656469;-68
2021/10/11 10:35:00;;;;;;;101.63;43.33;;;10.40;1.00;;;;;;4404460;28;657984;-68
2021/10/11 10:37:49;;;;;;;102.70;44.67;;;10.20;1.00;;;;;;4411639;28;659040;-68
2021/10/11 10:40:37;;;;;;;101.20;47.80;;;10.40;99.90;;;;;;4409452;28;659114;-68
2021/10/11 10:43:24;;;;;;;104.63;47.17;;;10.60;24.00;;;;;;4426582;28;660304;-68
2021/10/11 10:46:12;;;;;;;96.37;45.27;;;10.60;1.00;;;;;;4403721;28;660891;-68
2021/10/11 10:49:00;;;;;;;101.53;47.63;;;10.90;1.00;;;;;;4430602;28;658022;-68
2021/10/11 10:51:47;;;;;;;105.03;50.80;;;10.70;1.00;;;;;;4405552;28;659917;-68
2021/10/11 10:54:38;;;;;;;99.87;47.23;;;10.80;1.00;;;;;;4426942;28;658765;-68
2021/10/11 10:57:27;;;;;;;106.73;47.00;;;10.90;99.90;;;;;;4413193;28;658246;-68
2021/10/11 11:00:17;;;;;;;112.60;47.77;;;11.30;99.90;;;;;;4427118;28;659765;-68
2021/10/11 11:03:04;;;;;;;90.23;44.43;;;11.30;1.00;;;;;;4406301;28;661706;-68
2021/10/11 11:05:54;;;;;;;85.17;39.07;;;11.60;1.00;;;;;;4411227;28;658452;-68
2021/10/11 11:08:41;;;;;;;96.23;41.90;;;11.40;1.00;;;;;;4410848;28;657305;-68
2021/10/11 11:11:31;;;;;;;81.23;35.10;;;11.40;99.90;;;;;;4428949;28;657601;-68
2021/10/11 11:14:18;;;;;;;85.63;38.87;;;11.50;1.00;;;;;;4402895;28;660194;-68
2021/10/11 11:17:07;;;;;;;85.63;39.57;;;11.30;1.00;;;;;;4407383;28;657587;-68
2021/10/11 11:19:54;;;;;;;87.27;37.83;;;11.70;1.00;;;;;;4431375;28;657776;-68
2021/10/11 11:22:43;;;;;;;84.00;39.40;;;12.00;99.90;;;;;;4412080;28;659569;-68
2021/10/11 11:25:32;;;;;;;78.03;35.53;;;12.50;99.90;;;;;;4419675;28;658895;-68
2021/10/11 11:28:23;;;;;;;78.60;33.17;;;12.40;1.00;;;;;;4425961;28;658787;-68
2021/10/11 11:31:12;;;;;;;84.00;37.13;;;12.90;99.90;;;;;;4386538;28;657754;-68
2021/10/11 11:33:59;;;;;;;70.77;29.83;;;13.10;99.90;;;;;;4429478;28;658353;-68
2021/10/11 11:36:51;;;;;;;60.03;28.07;;;13.10;99.90;;;;;;4411146;28;658847;-68
2021/10/11 11:39:39;;;;;;;73.30;32.90;;;13.30;69.40;;;;;;4406600;28;659157;-68
2021/10/11 11:42:30;;;;;;;65.22;33.38;;;13.60;99.90;;;;;;4407746;28;658451;-68
2021/10/11 11:45:20;;;;;;;78.73;35.73;;;14.20;43.80;;;;;;4402068;28;659400;-68
2021/10/11 11:48:09;;;;;;;72.87;35.90;;;14.80;99.90;;;;;;4403651;28;660392;-68
2021/10/11 11:50:57;;;;;;;72.20;35.23;;;15.10;1.00;;;;;;4403640;28;658922;-68
2021/10/11 11:53:45;;;;;;;71.27;34.60;;;15.30;1.00;;;;;;4430966;28;658267;-68
2021/10/11 11:56:33;;;;;;;70.23;35.67;;;15.80;1.00;;;;;;4406903;28;658574;-68
2021/10/11 11:59:21;;;;;;;72.93;35.60;;;15.70;99.90;;;;;;4408483;28;657628;-68
2021/10/11 12:02:10;;;;;;;78.07;36.23;;;15.20;99.90;;;;;;4433316;28;659216;-68
2021/10/11 12:04:58;;;;;;;73.23;32.90;;;15.20;99.90;;;;;;4402863;28;660134;-68
2021/10/11 12:07:46;;;;;;;61.00;28.47;;;15.50;99.90;;;;;;4409309;28;658245;-68
2021/10/11 12:10:34;;;;;;;51.43;23.90;;;15.80;16.10;;;;;;4431735;28;659811;-68
2021/10/11 12:13:22;;;;;;;50.53;24.27;;;15.70;1.00;;;;;;4406939;28;659720;-67
2021/10/11 12:16:11;;;;;;;45.83;22.73;;;15.80;1.00;;;;;;4427554;28;657225;-68
2021/10/11 12:19:00;;;;;;;55.20;23.27;;;16.40;1.00;;;;;;4406050;28;658851;-68
2021/10/11 12:21:52;;;;;;;52.20;22.40;;;16.50;1.00;;;;;;4406547;28;658323;-68
2021/10/11 12:24:40;;;;;;;49.90;22.77;;;16.30;1.00;;;;;;4406958;28;657822;-68
2021/10/11 12:27:28;;;;;;;46.43;20.93;;;16.30;99.90;;;;;;4403690;28;658851;-67
2021/10/11 12:30:16;;;;;;;42.20;20.50;;;16.60;99.90;;;;;;4422274;28;659042;-68
2021/10/11 12:33:10;;;;;;;45.57;22.43;;;16.50;99.90;;;;;;4430747;28;659130;-67
2021/10/11 12:36:02;;;;;;;43.77;21.40;;;16.40;99.90;;;;;;4380017;28;658602;-67
2021/10/11 12:38:49;;;;;;;47.07;19.73;;;16.90;99.90;;;;;;4403090;28;658790;-68
2021/10/11 12:41:37;;;;;;;48.00;22.30;;;17.10;99.90;;;;;;4408229;28;658629;-68
2021/10/11 12:44:35;;;;;;;46.80;21.87;;;17.30;99.90;;;;;;4423959;28;658464;-67
2021/10/11 12:47:23;;;;;;;52.17;22.70;;;17.50;99.90;;;;;;4384719;28;658997;-68
2021/10/11 12:50:12;;;;;;;49.13;21.80;;;17.70;99.90;;;;;;4403237;28;658328;-67
2021/10/11 12:53:03;;;;;;;51.60;23.57;;;18.20;99.90;;;;;;4422750;28;658837;-67
2021/10/11 12:55:51;;;;;;;44.53;20.17;;;18.20;99.90;;;;;;4412087;28;658681;-68
2021/10/11 12:58:38;;;;;;;57.60;25.27;;;17.70;99.90;;;;;;4430166;28;659740;-68
2021/10/11 13:01:26;;;;;;;60.10;26.23;;;17.70;99.90;;;;;;4405602;28;659099;-67
2021/10/11 13:04:14;;;;;;;56.77;26.47;;;18.30;62.00;;;;;;4427343;28;659976;-68
2021/10/11 13:07:01;;;;;;;54.77;25.97;;;18.40;32.40;;;;;;4408605;28;658671;-67
2021/10/11 13:09:50;;;;;;;59.07;26.60;;;19.50;29.50;;;;;;4429129;28;659051;-67
2021/10/11 13:12:38;;;;;;;62.15;27.02;;;20.20;1.00;;;;;;4401893;28;659615;-67
2021/10/11 13:15:26;;;;;;;65.63;26.47;;;20.50;1.00;;;;;;4407190;28;657465;-68
2021/10/11 13:18:14;;;;;;;53.47;25.77;;;20.50;1.00;;;;;;4424524;28;659024;-68
2021/10/11 13:21:01;;;;;;;55.90;26.80;;;21.30;1.00;;;;;;4410243;28;659558;-67
2021/10/11 13:23:49;;;;;;;59.33;26.37;;;22.20;1.00;;;;;;4427541;28;657624;-67
2021/10/11 13:26:38;;;;;;;52.97;23.93;;;23.10;1.00;;;;;;4403449;28;657687;-67
2021/10/11 14:28:05;;;;;;;31.00;14.17;;;13.50;1.00;;;;;;4367455;28;659008;-67
2021/10/11 14:31:03;;;;;;;36.03;15.20;;;13.40;1.00;;;;;;4390163;28;658463;-68
2021/10/11 14:34:12;;;;;;;32.30;15.37;;;13.20;1.00;;;;;;4373061;28;658195;-67
2021/10/11 16:00:25;;;;;;;50.00;19.70;;;9.70;1.00;;;;;;4395075;28;657507;-68
2021/10/11 16:03:30;;;;;;;47.73;20.17;;;9.60;96.60;;;;;;4379302;28;657208;-68
2021/10/11 16:06:17;;;;;;;44.07;17.67;;;9.40;48.70;;;;;;4370535;28;657773;-68
2021/10/11 16:09:06;;;;;;;46.87;19.57;;;9.40;99.90;;;;;;4408709;28;657725;-68
2021/10/11 16:11:54;;;;;;;52.00;21.00;;;9.30;99.90;;;;;;4420653;28;658380;-68
2021/10/11 16:14:42;;;;;;;63.92;22.40;;;9.20;1.00;;;;;;4395825;28;658428;-69
2021/10/11 16:17:31;;;;;;;49.17;19.87;;;9.10;1.00;;;;;;4420556;28;656888;-68
2021/10/11 16:20:18;;;;;;;42.97;18.40;;;9.10;82.10;;;;;;4392965;28;657737;-68
2021/10/11 16:23:06;;;;;;;49.80;19.13;;;9.00;99.90;;;;;;4393059;28;658372;-68
2021/10/11 16:25:54;;;;;;;40.13;18.13;;;8.90;99.90;;;;;;4416865;28;659133;-68
2021/10/11 16:28:41;;;;;;;45.77;18.97;;;8.80;99.90;;;;;;4395709;28;657591;-68
2021/10/11 16:31:29;;;;;;;37.33;18.80;;;8.70;99.90;;;;;;4417107;28;658178;-68
2021/10/11 16:34:21;;;;;;;41.47;19.37;;;8.60;99.90;;;;;;4396128;28;657319;-68
2021/10/11 16:37:09;;;;;;;50.67;21.25;;;8.50;99.90;;;;;;4395057;28;658805;-69
2021/10/11 16:39:56;;;;;;;53.80;24.27;;;8.40;99.90;;;;;;4396647;28;657784;-69